Time;durP1;ratioP1;P1;durP2;ratioP2;P2;SDS_P1;SDS_P2;PMS_P1;PMS_P2;Temp;Humidity;BMP_temperature;BMP_pressure;BME280_temperature;BME280_humidity;BME280_pressure;Samples;Min_cycle;Max_cycle;Signal;HPM_P1;HPM_P2
2022/07/31 00:00:08;;;;;;;6.88;2.70;;;20.10;99.90;;;;;;5055116;28;20112;-49
2022/07/31 00:02:35;;;;;;;6.35;2.90;;;20.10;99.90;;;;;;5053006;28;20037;-52
2022/07/31 00:05:01;;;;;;;4.90;2.60;;;20.10;99.90;;;;;;5053120;28;20037;-49
2022/07/31 00:07:27;;;;;;;6.20;3.05;;;20.10;99.90;;;;;;5052682;28;20072;-49
2022/07/31 00:09:54;;;;;;;6.47;2.85;;;20.10;99.90;;;;;;5052917;28;20452;-48
2022/07/31 00:12:21;;;;;;;5.30;3.00;;;20.10;99.90;;;;;;5052197;28;20163;-53
2022/07/31 00:14:48;;;;;;;6.30;3.00;;;20.00;99.90;;;;;;5052113;28;20052;-50
2022/07/31 00:17:14;;;;;;;8.05;3.28;;;20.00;99.90;;;;;;5052302;28;20093;-49
2022/07/31 00:19:40;;;;;;;8.43;3.50;;;20.00;99.90;;;;;;5051803;28;20480;-52
2022/07/31 00:22:06;;;;;;;6.53;3.00;;;20.00;99.90;;;;;;5052237;28;20178;-51
2022/07/31 00:24:32;;;;;;;7.22;3.60;;;20.00;99.90;;;;;;5051210;28;20112;-49
2022/07/31 00:26:58;;;;;;;9.07;3.30;;;20.00;99.90;;;;;;5052434;28;20041;-49
2022/07/31 00:29:24;;;;;;;7.90;4.07;;;20.00;99.90;;;;;;5052140;28;20036;-49
2022/07/31 00:31:50;;;;;;;6.00;3.53;;;20.00;99.90;;;;;;5052497;28;20400;-50
2022/07/31 00:34:16;;;;;;;7.28;3.28;;;20.00;99.90;;;;;;5051894;28;20472;-53
2022/07/31 00:36:41;;;;;;;5.63;3.30;;;20.00;99.90;;;;;;5052069;28;20048;-53
2022/07/31 00:39:09;;;;;;;7.03;3.60;;;20.00;99.90;;;;;;5051072;28;20036;-50
2022/07/31 00:41:41;;;;;;;6.03;3.30;;;20.00;99.90;;;;;;5051710;28;20417;-50
2022/07/31 00:44:06;;;;;;;8.32;3.47;;;20.00;99.90;;;;;;5053732;28;20033;-49
2022/07/31 00:46:32;;;;;;;11.18;3.38;;;20.00;99.90;;;;;;5052413;28;20044;-51
2022/07/31 00:48:58;;;;;;;6.85;3.90;;;20.00;99.90;;;;;;5051657;28;20071;-50
2022/07/31 00:51:24;;;;;;;7.10;3.35;;;19.90;99.90;;;;;;5051966;28;20124;-49
2022/07/31 00:53:49;;;;;;;5.18;3.33;;;19.90;99.90;;;;;;5050978;28;20115;-50
2022/07/31 00:56:15;;;;;;;5.70;3.28;;;19.90;99.90;;;;;;5051714;28;20110;-53
2022/07/31 00:58:41;;;;;;;5.15;3.00;;;19.80;99.90;;;;;;5051222;28;20120;-51
2022/07/31 01:01:06;;;;;;;7.68;3.70;;;19.80;99.90;;;;;;5050152;28;20116;-53
2022/07/31 01:03:32;;;;;;;6.18;2.97;;;19.90;99.90;;;;;;5051048;28;20041;-52
2022/07/31 01:05:57;;;;;;;5.30;2.92;;;19.90;99.90;;;;;;5051493;28;20099;-51
2022/07/31 01:08:23;;;;;;;6.82;3.20;;;19.90;99.90;;;;;;5051371;28;20040;-51
2022/07/31 01:11:05;;;;;;;6.53;3.20;;;19.90;99.90;;;;;;5049747;28;20045;-49
2022/07/31 01:13:53;;;;;;;6.60;3.13;;;19.90;99.90;;;;;;5051294;28;20041;-51
2022/07/31 01:16:22;;;;;;;6.95;3.28;;;19.80;99.90;;;;;;5051092;28;20130;-50
2022/07/31 01:18:48;;;;;;;6.75;2.80;;;19.80;99.90;;;;;;5051042;28;20033;-50
2022/07/31 01:21:23;;;;;;;5.05;2.78;;;19.80;99.90;;;;;;5051363;28;20043;-51
2022/07/31 01:24:12;;;;;;;7.47;3.10;;;19.80;99.90;;;;;;5050827;28;20450;-48
2022/07/31 01:26:53;;;;;;;5.22;2.58;;;19.80;99.90;;;;;;5051159;28;20041;-48
2022/07/31 01:29:28;;;;;;;7.45;3.40;;;19.70;99.90;;;;;;5053828;28;20416;-51
2022/07/31 01:32:16;;;;;;;5.65;2.78;;;19.70;99.90;;;;;;5051760;28;20076;-49
2022/07/31 01:34:48;;;;;;;6.03;2.88;;;19.70;99.90;;;;;;5051644;28;20041;-53
2022/07/31 01:37:28;;;;;;;7.97;2.90;;;19.70;99.90;;;;;;5050816;28;20049;-51
2022/07/31 01:40:05;;;;;;;5.28;2.88;;;19.70;99.90;;;;;;5050840;28;20037;-50
2022/07/31 01:42:35;;;;;;;6.15;2.70;;;19.60;99.90;;;;;;5050390;28;20029;-50
2022/07/31 01:45:03;;;;;;;5.63;3.13;;;19.60;99.90;;;;;;5050815;28;20481;-52
2022/07/31 01:47:33;;;;;;;7.03;3.33;;;19.60;99.90;;;;;;5050443;28;20068;-51
2022/07/31 01:50:00;;;;;;;6.63;3.20;;;19.60;99.90;;;;;;5049848;28;20052;-47
2022/07/31 01:52:28;;;;;;;5.55;3.35;;;19.60;99.90;;;;;;5050477;28;20123;-46
2022/07/31 01:54:57;;;;;;;7.88;3.25;;;19.50;99.90;;;;;;5049686;28;20044;-51
2022/07/31 01:57:24;;;;;;;6.45;3.00;;;19.60;99.90;;;;;;5050715;28;20047;-50
2022/07/31 01:59:56;;;;;;;8.27;3.30;;;19.60;99.90;;;;;;5050354;28;20040;-50
2022/07/31 02:02:24;;;;;;;6.18;3.53;;;19.50;99.90;;;;;;5050756;28;20033;-51
2022/07/31 02:04:50;;;;;;;5.55;3.40;;;19.50;99.90;;;;;;5050141;28;20045;-50
2022/07/31 02:07:17;;;;;;;8.07;3.70;;;19.50;99.90;;;;;;5050411;28;20040;-48
2022/07/31 02:09:45;;;;;;;6.82;4.03;;;19.50;99.90;;;;;;5050525;28;20442;-49
2022/07/31 02:12:11;;;;;;;7.30;3.97;;;19.50;99.90;;;;;;5050415;28;20392;-52
2022/07/31 02:14:39;;;;;;;6.05;3.35;;;19.40;99.90;;;;;;5053323;28;20035;-52
2022/07/31 02:17:07;;;;;;;6.90;3.47;;;19.50;99.90;;;;;;5052125;28;20033;-49
2022/07/31 02:19:37;;;;;;;7.13;3.75;;;19.40;99.90;;;;;;5050303;28;20037;-52
2022/07/31 02:22:03;;;;;;;5.55;3.47;;;19.40;99.90;;;;;;5050288;28;20041;-51
2022/07/31 02:24:29;;;;;;;7.00;4.03;;;19.40;99.90;;;;;;5050351;28;20072;-51
2022/07/31 02:26:56;;;;;;;6.50;3.85;;;19.30;99.90;;;;;;5049965;28;20080;-53
2022/07/31 02:29:23;;;;;;;7.78;3.95;;;19.30;99.90;;;;;;5049301;28;20534;-49
2022/07/31 02:31:50;;;;;;;9.30;4.18;;;19.30;99.90;;;;;;5050358;28;20072;-51
2022/07/31 02:34:17;;;;;;;7.05;4.25;;;19.20;99.90;;;;;;5050187;28;20064;-51
2022/07/31 02:36:46;;;;;;;6.38;4.50;;;19.20;99.90;;;;;;5050109;28;20086;-50
2022/07/31 02:39:13;;;;;;;6.63;4.80;;;19.20;99.90;;;;;;5048784;28;20079;-50
2022/07/31 02:41:40;;;;;;;8.52;4.78;;;19.10;99.90;;;;;;5049978;28;20048;-49
2022/07/31 02:44:07;;;;;;;7.20;4.78;;;19.00;99.90;;;;;;5049938;28;20045;-47
2022/07/31 02:46:35;;;;;;;7.38;4.70;;;18.90;99.90;;;;;;5050503;28;20539;-51
2022/07/31 02:49:01;;;;;;;6.85;4.68;;;18.90;99.90;;;;;;5049663;28;20096;-50
2022/07/31 02:51:27;;;;;;;6.32;4.53;;;18.80;99.90;;;;;;5048767;28;20049;-51
2022/07/31 02:53:53;;;;;;;7.82;4.97;;;18.80;99.90;;;;;;5050244;28;20109;-50
2022/07/31 02:56:20;;;;;;;6.72;4.60;;;18.80;99.90;;;;;;5050373;28;20468;-49
2022/07/31 02:58:46;;;;;;;9.57;5.05;;;18.80;99.90;;;;;;5054688;28;20213;-49
2022/07/31 03:01:13;;;;;;;9.68;4.82;;;18.80;99.90;;;;;;5051424;28;20075;-53
2022/07/31 03:03:39;;;;;;;8.52;5.30;;;18.80;99.90;;;;;;5054137;28;20044;-50
2022/07/31 03:06:04;;;;;;;7.50;5.32;;;18.70;99.90;;;;;;5054009;28;20408;-49
2022/07/31 03:08:30;;;;;;;9.52;5.07;;;18.80;99.90;;;;;;5053976;28;20434;-50
2022/07/31 03:10:56;;;;;;;8.77;5.57;;;18.70;99.90;;;;;;5053084;28;20036;-52
2022/07/31 03:13:24;;;;;;;7.68;4.65;;;18.80;99.90;;;;;;5053633;28;20044;-51
2022/07/31 03:15:50;;;;;;;8.07;5.78;;;18.70;99.90;;;;;;5053818;28;20044;-53
2022/07/31 03:18:17;;;;;;;8.73;5.30;;;18.80;99.90;;;;;;5053405;28;20127;-47
2022/07/31 03:20:45;;;;;;;8.43;5.00;;;18.70;99.90;;;;;;5052255;28;20610;-52
2022/07/31 03:23:12;;;;;;;7.07;4.93;;;18.70;99.90;;;;;;5052187;28;20425;-49
2022/07/31 03:25:40;;;;;;;10.00;5.38;;;18.70;99.90;;;;;;5053337;28;20116;-49
2022/07/31 03:28:07;;;;;;;7.20;5.53;;;18.70;99.90;;;;;;5053271;28;20033;-51
2022/07/31 03:30:34;;;;;;;9.00;5.68;;;18.70;99.90;;;;;;5053384;28;20045;-50
2022/07/31 03:33:02;;;;;;;9.48;5.43;;;18.70;99.90;;;;;;5052815;28;20033;-52
2022/07/31 03:35:28;;;;;;;8.10;5.10;;;18.70;99.90;;;;;;5053199;28;20106;-51
2022/07/31 03:37:54;;;;;;;7.75;5.55;;;18.70;99.90;;;;;;5051728;28;20131;-52
2022/07/31 03:40:20;;;;;;;8.27;5.40;;;18.70;99.90;;;;;;5053248;28;20111;-47
2022/07/31 03:42:49;;;;;;;7.97;5.38;;;18.70;99.90;;;;;;5051930;28;20045;-49
2022/07/31 03:45:17;;;;;;;9.05;5.65;;;18.70;99.90;;;;;;5051040;28;20037;-51
2022/07/31 03:47:43;;;;;;;9.45;5.63;;;18.60;99.90;;;;;;5052693;28;20128;-51
2022/07/31 03:50:10;;;;;;;8.50;5.65;;;18.60;99.90;;;;;;5052750;28;20532;-51
2022/07/31 03:52:36;;;;;;;7.13;5.70;;;18.70;99.90;;;;;;5053107;28;20072;-54
2022/07/31 03:55:02;;;;;;;6.72;5.50;;;18.60;99.90;;;;;;5052623;28;20048;-51
2022/07/31 03:57:29;;;;;;;9.45;5.50;;;18.70;99.90;;;;;;5034793;28;20048;-52
2022/07/31 03:59:57;;;;;;;7.97;5.40;;;18.70;99.90;;;;;;5050929;28;20391;-49
2022/07/31 04:02:26;;;;;;;7.35;5.07;;;18.70;99.90;;;;;;5052793;28;20037;-51
2022/07/31 04:04:52;;;;;;;8.07;5.22;;;18.70;99.90;;;;;;5052460;28;20029;-50
2022/07/31 04:07:18;;;;;;;9.23;5.53;;;18.70;99.90;;;;;;5052521;28;20048;-52
2022/07/31 04:09:44;;;;;;;7.20;5.20;;;18.70;99.90;;;;;;5052290;28;20044;-50
2022/07/31 04:12:09;;;;;;;9.77;5.22;;;18.70;99.90;;;;;;5050193;28;20072;-51
2022/07/31 04:14:35;;;;;;;6.40;4.65;;;18.70;99.90;;;;;;5052089;28;20083;-51
2022/07/31 04:17:01;;;;;;;8.20;5.07;;;18.70;99.90;;;;;;5051944;28;20041;-49
2022/07/31 04:19:29;;;;;;;8.45;5.80;;;18.70;99.90;;;;;;5052127;28;20405;-51
2022/07/31 04:21:56;;;;;;;7.43;5.57;;;18.70;99.90;;;;;;5052052;28;20041;-51
2022/07/31 04:24:22;;;;;;;8.55;5.60;;;18.70;99.90;;;;;;5052430;28;20067;-48
2022/07/31 04:26:49;;;;;;;9.73;5.20;;;18.70;99.90;;;;;;5052077;28;20045;-48
2022/07/31 04:29:16;;;;;;;8.52;5.38;;;18.70;99.90;;;;;;5053682;28;20068;-53
2022/07/31 04:31:41;;;;;;;7.05;4.68;;;18.70;99.90;;;;;;5053233;28;20048;-49
2022/07/31 04:34:07;;;;;;;7.75;5.07;;;18.70;99.90;;;;;;5052245;28;20103;-52
2022/07/31 04:36:33;;;;;;;7.43;5.10;;;18.80;99.90;;;;;;5050447;28;20116;-52
2022/07/31 04:38:59;;;;;;;7.43;5.00;;;18.80;99.90;;;;;;5051812;28;20045;-49
2022/07/31 04:41:25;;;;;;;9.90;4.80;;;18.70;99.90;;;;;;5051405;28;20051;-52
2022/07/31 04:43:51;;;;;;;8.23;5.68;;;18.70;99.90;;;;;;5051930;28;20036;-50
2022/07/31 04:46:16;;;;;;;7.55;4.90;;;18.70;99.90;;;;;;5050144;28;20052;-49
2022/07/31 04:48:42;;;;;;;7.43;5.18;;;18.80;99.90;;;;;;5051606;28;20053;-49
2022/07/31 04:51:07;;;;;;;7.20;5.68;;;18.80;99.90;;;;;;5051216;28;20036;-49
2022/07/31 04:53:33;;;;;;;8.18;5.47;;;18.80;99.90;;;;;;5051593;28;20045;-48
2022/07/31 04:58:43;;;;;;;;;;;18.90;99.90;;;;;;5052171;28;20040;-51
2022/07/31 05:01:09;;;;;;;7.35;5.25;;;18.90;99.90;;;;;;5051208;28;19917;-52
2022/07/31 05:03:34;;;;;;;7.43;5.40;;;18.80;99.90;;;;;;5051503;28;20116;-49
2022/07/31 05:06:10;;;;;;;10.98;6.30;;;18.80;99.90;;;;;;5051343;28;20048;-52
2022/07/31 05:08:36;;;;;;;7.72;5.22;;;18.90;99.90;;;;;;5051507;28;20037;-54
2022/07/31 05:13:58;;;;;;;10.73;5.80;;;18.90;99.90;;;;;;5053747;28;20522;-53
2022/07/31 05:16:25;;;;;;;9.85;5.47;;;18.90;99.90;;;;;;5051255;28;20496;-52
2022/07/31 05:18:51;;;;;;;7.28;5.85;;;19.00;99.90;;;;;;5050997;28;20082;-54
2022/07/31 05:21:17;;;;;;;8.60;5.50;;;19.00;99.90;;;;;;5051287;28;20503;-51
2022/07/31 05:23:45;;;;;;;7.85;5.43;;;19.00;99.90;;;;;;5051069;28;20037;-48
2022/07/31 05:26:11;;;;;;;11.02;5.72;;;19.00;99.90;;;;;;5050946;28;20048;-50
2022/07/31 05:28:38;;;;;;;7.78;5.40;;;19.00;99.90;;;;;;5050938;28;20040;-50
2022/07/31 05:31:06;;;;;;;7.70;5.32;;;19.00;99.90;;;;;;5051085;28;20420;-48
2022/07/31 05:33:32;;;;;;;9.35;5.70;;;19.00;99.90;;;;;;5051053;28;20107;-48
2022/07/31 05:35:59;;;;;;;7.55;5.43;;;19.00;99.90;;;;;;5050941;28;20053;-53
2022/07/31 05:38:25;;;;;;;9.90;6.07;;;19.00;99.90;;;;;;5051217;28;20044;-49
2022/07/31 05:40:51;;;;;;;10.60;6.10;;;19.00;99.90;;;;;;5050539;28;20405;-48
2022/07/31 05:43:17;;;;;;;8.70;6.20;;;19.00;99.90;;;;;;5051129;28;20036;-51
2022/07/31 05:45:43;;;;;;;6.95;5.28;;;19.00;99.90;;;;;;5049903;28;20610;-46
2022/07/31 05:48:09;;;;;;;10.82;5.93;;;19.00;99.90;;;;;;5048939;28;20121;-49
2022/07/31 05:50:35;;;;;;;7.78;5.65;;;19.10;99.90;;;;;;5050471;28;20430;-52
2022/07/31 05:53:00;;;;;;;6.18;5.28;;;19.10;99.90;;;;;;5044112;28;20042;-50
2022/07/31 05:55:26;;;;;;;9.35;5.95;;;19.20;99.90;;;;;;5037920;28;20039;-49
2022/07/31 05:57:53;;;;;;;8.48;6.10;;;19.20;99.90;;;;;;5044996;28;20040;-49
2022/07/31 06:00:19;;;;;;;16.30;6.72;;;19.10;99.90;;;;;;5040582;28;20072;-51
2022/07/31 06:02:46;;;;;;;8.02;5.97;;;19.20;99.90;;;;;;5039971;28;20037;-51
2022/07/31 06:05:12;;;;;;;10.73;6.63;;;19.20;99.90;;;;;;5041686;28;20032;-51
2022/07/31 06:07:37;;;;;;;8.10;6.03;;;19.20;99.90;;;;;;5037434;28;20806;-50
2022/07/31 06:10:04;;;;;;;10.15;6.93;;;19.20;99.90;;;;;;5046270;28;20048;-49
2022/07/31 06:12:30;;;;;;;10.98;7.03;;;19.20;99.90;;;;;;5045489;28;20048;-53
2022/07/31 06:14:55;;;;;;;10.45;6.80;;;19.20;99.90;;;;;;5044934;28;20054;-51
2022/07/31 06:17:21;;;;;;;9.63;6.93;;;19.30;99.90;;;;;;5041937;28;20041;-51
2022/07/31 06:19:47;;;;;;;7.80;6.60;;;19.40;99.90;;;;;;5043059;28;20055;-49
2022/07/31 06:22:12;;;;;;;8.73;6.90;;;19.40;99.90;;;;;;5046975;28;20565;-52
2022/07/31 06:24:38;;;;;;;8.65;6.93;;;19.50;99.90;;;;;;5043584;28;20040;-51
2022/07/31 06:27:04;;;;;;;11.57;7.55;;;19.50;99.90;;;;;;5041132;28;20044;-50
2022/07/31 06:29:29;;;;;;;11.00;6.93;;;19.60;99.90;;;;;;5048670;28;20507;-52
2022/07/31 06:31:56;;;;;;;9.60;7.10;;;19.70;99.90;;;;;;5045832;28;20393;-49
2022/07/31 06:34:22;;;;;;;10.65;7.50;;;19.70;99.90;;;;;;5043002;28;20055;-51
2022/07/31 06:36:48;;;;;;;9.55;7.32;;;19.80;99.90;;;;;;5043069;28;20048;-50
2022/07/31 06:39:15;;;;;;;8.52;7.60;;;19.90;99.90;;;;;;5051694;28;20037;-52
2022/07/31 06:41:46;;;;;;;8.55;7.10;;;19.90;99.90;;;;;;5046656;28;20079;-50
2022/07/31 06:44:12;;;;;;;11.68;7.32;;;19.90;99.90;;;;;;5046502;28;20076;-52
2022/07/31 06:46:38;;;;;;;9.63;7.10;;;20.00;99.90;;;;;;5048129;28;20395;-50
2022/07/31 06:49:04;;;;;;;10.93;7.53;;;20.10;99.90;;;;;;5048821;28;20057;-50
2022/07/31 06:51:30;;;;;;;11.00;7.22;;;20.00;99.90;;;;;;5047930;28;20124;-49
2022/07/31 06:53:57;;;;;;;14.43;7.38;;;20.10;99.90;;;;;;5045401;28;20164;-52
2022/07/31 06:56:23;;;;;;;9.27;6.78;;;20.10;99.90;;;;;;5051701;28;20056;-49
2022/07/31 06:58:49;;;;;;;8.80;6.65;;;20.20;99.90;;;;;;5049079;28;20044;-51
2022/07/31 07:01:14;;;;;;;10.73;6.75;;;20.10;99.90;;;;;;5037088;28;21145;-46
2022/07/31 07:03:40;;;;;;;10.70;7.80;;;20.20;99.90;;;;;;5039790;28;20033;-48
2022/07/31 07:06:06;;;;;;;10.25;7.35;;;20.40;99.90;;;;;;5042170;28;20039;-53
2022/07/31 07:08:31;;;;;;;12.52;7.97;;;20.20;99.90;;;;;;5041610;28;20065;-51
2022/07/31 07:10:57;;;;;;;10.48;7.25;;;20.20;99.90;;;;;;5040122;28;20044;-51
2022/07/31 07:13:25;;;;;;;9.20;7.05;;;20.20;99.90;;;;;;5041070;28;20060;-48
2022/07/31 07:15:50;;;;;;;11.38;6.88;;;20.10;99.90;;;;;;5042006;28;20063;-49
2022/07/31 07:18:17;;;;;;;13.80;7.43;;;20.20;99.90;;;;;;5040674;28;20037;-49
2022/07/31 07:20:42;;;;;;;10.82;6.57;;;20.20;99.90;;;;;;5040434;28;20102;-50
2022/07/31 07:23:08;;;;;;;15.88;6.45;;;20.20;99.90;;;;;;5039575;28;20044;-52
2022/07/31 07:25:34;;;;;;;9.68;6.30;;;20.30;99.90;;;;;;5041933;28;20472;-50
2022/07/31 07:27:59;;;;;;;9.85;6.28;;;20.30;99.90;;;;;;5041499;28;20021;-52
2022/07/31 07:30:27;;;;;;;9.80;5.85;;;20.30;99.90;;;;;;5035892;28;20032;-49
2022/07/31 07:32:53;;;;;;;9.07;6.15;;;20.30;99.90;;;;;;5035000;28;20068;-49
2022/07/31 07:35:20;;;;;;;9.20;5.68;;;20.40;99.90;;;;;;5034755;28;20112;-48
2022/07/31 07:37:47;;;;;;;9.45;6.63;;;20.50;99.90;;;;;;5032780;28;20041;-49
2022/07/31 07:40:13;;;;;;;9.38;5.72;;;20.50;99.90;;;;;;5035463;28;20043;-50
2022/07/31 07:42:39;;;;;;;10.60;5.60;;;20.50;99.90;;;;;;5038949;28;20029;-49
2022/07/31 07:45:05;;;;;;;10.52;6.03;;;20.60;99.90;;;;;;5034354;28;20100;-50
2022/07/31 07:47:31;;;;;;;8.57;5.80;;;20.60;99.90;;;;;;5030972;28;20207;-53
2022/07/31 07:49:56;;;;;;;8.90;5.93;;;20.80;99.90;;;;;;5030801;28;20052;-49
2022/07/31 07:52:22;;;;;;;7.75;5.65;;;20.90;99.90;;;;;;5032498;28;20049;-49
2022/07/31 07:54:48;;;;;;;9.25;6.03;;;20.90;99.90;;;;;;5035963;28;20041;-51
2022/07/31 07:57:15;;;;;;;9.35;6.00;;;20.90;99.90;;;;;;5037259;28;20158;-50
2022/07/31 07:59:40;;;;;;;9.35;6.25;;;20.90;99.90;;;;;;5034908;28;20087;-48
2022/07/31 08:02:06;;;;;;;8.23;5.75;;;20.90;99.90;;;;;;5032745;28;20468;-49
2022/07/31 08:04:32;;;;;;;8.25;5.47;;;21.00;99.90;;;;;;5035248;28;20504;-52
2022/07/31 08:06:57;;;;;;;9.05;5.60;;;20.90;99.90;;;;;;5034589;28;20049;-51
2022/07/31 08:09:24;;;;;;;9.48;6.03;;;21.00;99.90;;;;;;5035453;28;20132;-54
2022/07/31 08:11:50;;;;;;;9.48;6.68;;;21.00;99.90;;;;;;5035602;28;20122;-51
2022/07/31 08:14:15;;;;;;;7.53;5.32;;;20.90;99.90;;;;;;5036070;28;20072;-49
2022/07/31 08:16:41;;;;;;;7.65;5.78;;;21.00;99.90;;;;;;5033455;28;20045;-52
2022/07/31 08:19:07;;;;;;;11.10;6.53;;;21.00;99.90;;;;;;5033162;28;21406;-49
2022/07/31 08:21:36;;;;;;;9.18;7.07;;;21.00;99.90;;;;;;5047930;28;20068;-51
2022/07/31 08:24:02;;;;;;;11.02;6.95;;;20.90;99.90;;;;;;5033095;28;20037;-49
2022/07/31 08:27:22;;;;;;;10.32;7.25;;;20.80;99.90;;;;;;5033542;28;20029;-49
2022/07/31 08:29:16;;;;;;;8.73;6.90;;;20.90;99.90;;;;;;5034441;28;20044;-50
2022/07/31 08:31:42;;;;;;;10.27;7.32;;;20.90;99.90;;;;;;5033287;28;20025;-50
2022/07/31 08:34:07;;;;;;;11.55;7.35;;;20.80;99.90;;;;;;5034057;28;20063;-52
2022/07/31 08:36:33;;;;;;;11.38;7.40;;;20.70;99.90;;;;;;5034378;28;20037;-46
2022/07/31 08:38:59;;;;;;;10.30;7.68;;;20.60;99.90;;;;;;5035505;28;20031;-51
2022/07/31 08:41:24;;;;;;;12.82;7.95;;;20.60;99.90;;;;;;5033129;28;20114;-52
2022/07/31 08:43:50;;;;;;;9.57;7.00;;;20.60;99.90;;;;;;5034141;28;20071;-51
2022/07/31 08:46:17;;;;;;;10.95;7.75;;;20.60;99.90;;;;;;5034966;28;20029;-49
2022/07/31 08:48:43;;;;;;;12.23;7.43;;;20.50;99.90;;;;;;5037112;28;20096;-52
2022/07/31 08:51:11;;;;;;;13.00;8.40;;;20.50;99.90;;;;;;5049401;28;20037;-49
2022/07/31 08:53:38;;;;;;;11.20;8.57;;;20.40;99.90;;;;;;5030949;28;20110;-50
2022/07/31 08:56:08;;;;;;;11.02;8.65;;;20.30;99.90;;;;;;5033845;28;20041;-50
2022/07/31 08:58:34;;;;;;;12.93;8.52;;;20.30;99.90;;;;;;5034792;28;20119;-52
2022/07/31 09:01:00;;;;;;;10.32;8.15;;;20.20;99.90;;;;;;5032959;28;20033;-51
2022/07/31 09:03:26;;;;;;;13.80;9.38;;;20.10;99.90;;;;;;5032872;28;20197;-50
2022/07/31 09:05:51;;;;;;;12.45;9.00;;;20.20;99.90;;;;;;5035142;28;20548;-51
2022/07/31 09:08:17;;;;;;;12.82;9.15;;;20.10;99.90;;;;;;5044942;28;20496;-50
2022/07/31 09:10:43;;;;;;;12.95;8.90;;;20.10;99.90;;;;;;5033563;28;20083;-51
2022/07/31 09:13:16;;;;;;;12.70;9.43;;;20.00;99.90;;;;;;5032645;28;20034;-50
2022/07/31 09:15:43;;;;;;;15.50;10.18;;;20.00;99.90;;;;;;5030814;28;20037;-52
2022/07/31 09:18:20;;;;;;;13.30;9.02;;;20.00;99.90;;;;;;5033389;28;20084;-49
2022/07/31 09:20:58;;;;;;;14.80;10.30;;;19.90;99.90;;;;;;5031834;28;21432;-50
2022/07/31 09:23:25;;;;;;;15.07;10.68;;;20.10;99.90;;;;;;5031348;28;20034;-47
2022/07/31 09:25:56;;;;;;;13.38;10.10;;;20.10;99.90;;;;;;5035510;28;20049;-49
2022/07/31 09:28:36;;;;;;;12.13;8.90;;;20.10;99.90;;;;;;5032163;28;20048;-52
2022/07/31 09:31:03;;;;;;;13.10;10.27;;;20.00;99.90;;;;;;5032634;28;20147;-52
2022/07/31 09:33:30;;;;;;;12.85;10.48;;;20.00;99.90;;;;;;5036412;28;20503;-50
2022/07/31 09:35:57;;;;;;;11.68;9.65;;;20.00;99.90;;;;;;5033469;28;20072;-48
2022/07/31 09:38:39;;;;;;;13.10;10.93;;;19.90;99.90;;;;;;5035372;28;20038;-54
2022/07/31 09:41:11;;;;;;;12.88;10.18;;;20.10;99.90;;;;;;5036016;28;20384;-50
2022/07/31 09:43:38;;;;;;;15.38;10.52;;;20.20;99.90;;;;;;5032618;28;20048;-49
2022/07/31 09:46:05;;;;;;;15.45;10.88;;;20.20;99.90;;;;;;5033458;28;20122;-48
2022/07/31 09:48:32;;;;;;;13.00;9.93;;;20.20;99.90;;;;;;5035274;28;20367;-52
2022/07/31 09:51:01;;;;;;;13.20;10.27;;;20.30;99.90;;;;;;5034098;28;20077;-52
2022/07/31 09:53:39;;;;;;;12.23;9.88;;;20.40;99.90;;;;;;5033765;28;20072;-48
2022/07/31 09:56:06;;;;;;;12.82;9.40;;;20.30;99.90;;;;;;5033726;28;20053;-50
2022/07/31 09:58:32;;;;;;;12.15;9.70;;;20.30;99.90;;;;;;5034922;28;20051;-47
2022/07/31 10:00:59;;;;;;;15.55;8.95;;;20.40;99.90;;;;;;5034895;28;20033;-50
2022/07/31 10:03:25;;;;;;;10.98;8.93;;;20.30;99.90;;;;;;5035924;28;20033;-48
2022/07/31 10:05:54;;;;;;;11.55;8.73;;;20.20;99.90;;;;;;5035072;28;20120;-52
2022/07/31 10:08:21;;;;;;;9.48;8.05;;;20.30;99.90;;;;;;5035334;28;20049;-52
2022/07/31 10:10:48;;;;;;;11.65;8.55;;;20.30;99.90;;;;;;5034160;28;20034;-50
2022/07/31 10:13:18;;;;;;;12.23;9.55;;;20.10;99.90;;;;;;5032846;28;20697;-50
2022/07/31 10:15:46;;;;;;;11.98;8.82;;;20.10;99.90;;;;;;5034091;28;20033;-49
2022/07/31 10:18:14;;;;;;;11.48;9.20;;;20.20;99.90;;;;;;5033604;28;20069;-49
2022/07/31 10:20:42;;;;;;;10.88;9.13;;;20.20;99.90;;;;;;5034897;28;20049;-46
2022/07/31 10:23:14;;;;;;;10.60;8.32;;;20.10;99.90;;;;;;5033599;28;20029;-50
2022/07/31 10:25:45;;;;;;;11.93;9.82;;;20.10;99.90;;;;;;5029900;28;20041;-51
2022/07/31 10:28:11;;;;;;;13.27;9.15;;;20.20;99.90;;;;;;5035383;28;20033;-52
2022/07/31 10:30:37;;;;;;;14.07;9.05;;;20.20;99.90;;;;;;5033887;28;20187;-48
2022/07/31 10:33:06;;;;;;;14.32;9.70;;;20.20;99.90;;;;;;5033797;28;20040;-55
2022/07/31 10:35:39;;;;;;;11.85;9.35;;;20.20;99.90;;;;;;5034189;28;20036;-49
2022/07/31 10:38:14;;;;;;;14.63;10.60;;;20.20;99.90;;;;;;5036170;28;20492;-50
2022/07/31 10:40:45;;;;;;;13.48;9.88;;;20.30;99.90;;;;;;5034215;28;20296;-48
2022/07/31 10:43:37;;;;;;;13.18;9.82;;;20.20;99.90;;;;;;5035898;28;20511;-52
2022/07/31 10:46:03;;;;;;;14.23;10.45;;;20.20;99.90;;;;;;5033831;28;20041;-53
2022/07/31 10:48:28;;;;;;;13.23;10.05;;;20.10;99.90;;;;;;5032341;28;20632;-46
2022/07/31 10:51:06;;;;;;;13.45;9.88;;;20.10;99.90;;;;;;5038218;28;20045;-52
2022/07/31 10:53:32;;;;;;;15.05;9.88;;;20.10;99.90;;;;;;5035178;28;20045;-52
2022/07/31 10:56:11;;;;;;;13.68;10.57;;;20.20;99.90;;;;;;5035309;28;20055;-52
2022/07/31 10:58:51;;;;;;;14.48;10.93;;;20.10;99.90;;;;;;5031489;28;20040;-52
2022/07/31 11:01:17;;;;;;;13.90;11.18;;;20.10;99.90;;;;;;5034670;28;20105;-50
2022/07/31 11:03:48;;;;;;;16.92;13.15;;;19.90;99.90;;;;;;5046627;28;20060;-50
2022/07/31 11:06:16;;;;;;;18.25;14.75;;;19.90;99.90;;;;;;5032752;28;20049;-49
2022/07/31 11:08:51;;;;;;;21.05;15.82;;;19.90;99.90;;;;;;5044924;28;20044;-51
2022/07/31 11:11:17;;;;;;;20.38;15.90;;;19.90;99.90;;;;;;5045357;28;20353;-49
2022/07/31 11:13:51;;;;;;;22.33;15.73;;;19.80;99.90;;;;;;5045359;28;20041;-48
2022/07/31 11:16:18;;;;;;;20.90;16.80;;;19.70;99.90;;;;;;5045571;28;20045;-53
2022/07/31 11:18:55;;;;;;;20.40;16.27;;;19.70;99.90;;;;;;5046751;28;20085;-50
2022/07/31 11:21:46;;;;;;;23.67;17.52;;;19.70;99.90;;;;;;5049280;28;20048;-47
2022/07/31 11:24:17;;;;;;;22.15;17.77;;;19.60;99.90;;;;;;5052637;28;20033;-48
2022/07/31 11:26:50;;;;;;;24.60;18.52;;;19.50;99.90;;;;;;5042899;28;20034;-48
2022/07/31 11:29:37;;;;;;;21.53;16.97;;;19.50;99.90;;;;;;5050961;28;20523;-48
2022/07/31 11:32:05;;;;;;;20.88;17.42;;;19.50;99.90;;;;;;5049041;28;20115;-50
2022/07/31 11:34:47;;;;;;;23.65;20.48;;;19.60;99.90;;;;;;5045636;28;20106;-50
2022/07/31 11:37:19;;;;;;;26.27;20.55;;;19.60;99.90;;;;;;5042207;28;20550;-51
2022/07/31 11:39:45;;;;;;;26.40;20.20;;;19.60;99.90;;;;;;5047470;28;20123;-48
2022/07/31 11:42:11;;;;;;;26.80;21.33;;;19.60;99.90;;;;;;5052826;28;20044;-50
2022/07/31 11:44:40;;;;;;;31.52;21.98;;;19.80;99.90;;;;;;5053338;28;20033;-51
2022/07/31 11:47:05;;;;;;;29.52;22.25;;;19.90;99.90;;;;;;5057830;28;20057;-49
2022/07/31 11:49:34;;;;;;;31.67;22.88;;;20.00;99.90;;;;;;5049319;28;20037;-53
2022/07/31 11:52:01;;;;;;;30.55;22.95;;;19.80;99.90;;;;;;5053199;28;20073;-48
2022/07/31 11:54:27;;;;;;;30.73;23.02;;;20.00;99.90;;;;;;5050688;28;20036;-48
2022/07/31 11:56:56;;;;;;;29.27;23.35;;;19.90;99.90;;;;;;5050326;28;20127;-51
2022/07/31 11:59:33;;;;;;;30.75;23.83;;;19.80;99.90;;;;;;5050223;28;20130;-50
2022/07/31 12:02:06;;;;;;;29.33;23.40;;;19.80;99.90;;;;;;5048084;28;20460;-52
2022/07/31 12:04:35;;;;;;;32.25;24.55;;;20.00;99.90;;;;;;5048741;28;20041;-53
2022/07/31 12:07:02;;;;;;;30.98;24.75;;;19.90;99.90;;;;;;5050771;28;20098;-50
2022/07/31 12:09:29;;;;;;;29.92;22.88;;;19.90;99.90;;;;;;5049661;28;20102;-46
2022/07/31 12:11:55;;;;;;;29.42;24.40;;;19.90;99.90;;;;;;5049081;28;20041;-47
2022/07/31 12:14:36;;;;;;;33.97;24.92;;;19.70;99.90;;;;;;5050029;28;20056;-51
2022/07/31 12:17:03;;;;;;;30.20;23.55;;;19.70;99.90;;;;;;5052671;28;20080;-53
2022/07/31 12:19:33;;;;;;;32.45;25.52;;;19.70;99.90;;;;;;5051061;28;20112;-51
2022/07/31 12:22:00;;;;;;;35.03;26.02;;;19.70;99.90;;;;;;5053107;28;20052;-50
2022/07/31 12:24:26;;;;;;;32.33;24.80;;;20.00;99.90;;;;;;5034598;28;20048;-49
2022/07/31 12:26:53;;;;;;;29.73;24.88;;;20.00;99.90;;;;;;5049212;28;20667;-54
2022/07/31 12:29:35;;;;;;;29.75;23.35;;;20.10;99.90;;;;;;5044402;28;20479;-48
2022/07/31 12:32:01;;;;;;;29.75;24.35;;;19.80;99.90;;;;;;5047368;28;20047;-51
2022/07/31 12:34:37;;;;;;;33.13;24.02;;;20.00;99.90;;;;;;5049409;28;20055;-52
2022/07/31 12:37:11;;;;;;;32.15;25.08;;;20.00;99.90;;;;;;5047163;28;20041;-47
2022/07/31 12:39:48;;;;;;;33.83;25.90;;;20.00;99.90;;;;;;5047710;28;20434;-51
2022/07/31 12:42:30;;;;;;;30.05;24.38;;;19.80;99.90;;;;;;5045316;28;20059;-51
2022/07/31 12:44:59;;;;;;;32.55;24.95;;;20.10;99.90;;;;;;5048084;28;20075;-52
2022/07/31 12:47:28;;;;;;;32.22;25.63;;;19.90;99.90;;;;;;5051078;28;20083;-48
2022/07/31 12:49:55;;;;;;;34.17;26.98;;;19.90;99.90;;;;;;5050911;28;20073;-48